sensor_id;sensor_type;location;lat;lon;timestamp;P1;durP1;ratioP1;P2;durP2;ratioP2
48522;SDS011;34315;50.150;11.070;2023-03-23T00:03:25;4.57;;;1.90;;
48522;SDS011;34315;50.150;11.070;2023-03-23T00:08:26;5.32;;;1.80;;
48522;SDS011;34315;50.150;11.070;2023-03-23T00:13:28;3.38;;;1.90;;
48522;SDS011;34315;50.150;11.070;2023-03-23T00:18:29;3.33;;;1.80;;
48522;SDS011;34315;50.150;11.070;2023-03-23T00:23:30;3.00;;;1.60;;
48522;SDS011;34315;50.150;11.070;2023-03-23T00:28:31;3.55;;;2.00;;
48522;SDS011;34315;50.150;11.070;2023-03-23T00:33:34;6.20;;;2.10;;
48522;SDS011;34315;50.150;11.070;2023-03-23T00:38:39;3.90;;;1.80;;
48522;SDS011;34315;50.150;11.070;2023-03-23T00:43:41;4.68;;;2.13;;
48522;SDS011;34315;50.150;11.070;2023-03-23T00:48:42;4.55;;;1.83;;
48522;SDS011;34315;50.150;11.070;2023-03-23T00:53:45;3.70;;;2.10;;
48522;SDS011;34315;50.150;11.070;2023-03-23T00:58:47;4.55;;;2.22;;
48522;SDS011;34315;50.150;11.070;2023-03-23T01:03:48;7.72;;;2.13;;
48522;SDS011;34315;50.150;11.070;2023-03-23T01:08:50;5.20;;;2.08;;
48522;SDS011;34315;50.150;11.070;2023-03-23T01:13:52;3.22;;;2.22;;
48522;SDS011;34315;50.150;11.070;2023-03-23T01:18:54;3.72;;;1.77;;
48522;SDS011;34315;50.150;11.070;2023-03-23T01:23:56;7.10;;;2.03;;
48522;SDS011;34315;50.150;11.070;2023-03-23T01:28:57;5.18;;;2.20;;
48522;SDS011;34315;50.150;11.070;2023-03-23T01:33:58;4.10;;;1.90;;
48522;SDS011;34315;50.150;11.070;2023-03-23T01:39:00;4.07;;;1.77;;
48522;SDS011;34315;50.150;11.070;2023-03-23T01:44:07;3.22;;;1.67;;
48522;SDS011;34315;50.150;11.070;2023-03-23T01:49:34;4.03;;;1.83;;
48522;SDS011;34315;50.150;11.070;2023-03-23T01:54:37;3.05;;;1.73;;
48522;SDS011;34315;50.150;11.070;2023-03-23T01:59:39;2.55;;;1.58;;
48522;SDS011;34315;50.150;11.070;2023-03-23T02:05:43;6.95;;;1.90;;
48522;SDS011;34315;50.150;11.070;2023-03-23T02:10:52;6.47;;;2.00;;
48522;SDS011;34315;50.150;11.070;2023-03-23T02:31:06;3.15;;;1.60;;
48522;SDS011;34315;50.150;11.070;2023-03-23T02:36:34;3.08;;;1.60;;
48522;SDS011;34315;50.150;11.070;2023-03-23T02:41:43;1.92;;;1.25;;
48522;SDS011;34315;50.150;11.070;2023-03-23T02:46:46;3.78;;;1.50;;
48522;SDS011;34315;50.150;11.070;2023-03-23T02:51:48;4.30;;;1.85;;
48522;SDS011;34315;50.150;11.070;2023-03-23T02:56:50;3.15;;;1.50;;
48522;SDS011;34315;50.150;11.070;2023-03-23T03:01:59;3.53;;;1.70;;
48522;SDS011;34315;50.150;11.070;2023-03-23T03:12:07;4.75;;;1.92;;
48522;SDS011;34315;50.150;11.070;2023-03-23T03:22:21;2.47;;;1.30;;
48522;SDS011;34315;50.150;11.070;2023-03-23T03:27:23;3.15;;;1.50;;
48522;SDS011;34315;50.150;11.070;2023-03-23T03:32:38;2.70;;;1.42;;
48522;SDS011;34315;50.150;11.070;2023-03-23T03:37:42;3.35;;;1.30;;
48522;SDS011;34315;50.150;11.070;2023-03-23T03:42:44;2.63;;;1.40;;
48522;SDS011;34315;50.150;11.070;2023-03-23T03:47:45;4.03;;;1.52;;
48522;SDS011;34315;50.150;11.070;2023-03-23T03:52:47;2.58;;;1.50;;
48522;SDS011;34315;50.150;11.070;2023-03-23T03:57:49;6.13;;;1.88;;
48522;SDS011;34315;50.150;11.070;2023-03-23T04:03:07;3.70;;;1.70;;
48522;SDS011;34315;50.150;11.070;2023-03-23T04:08:29;3.88;;;1.85;;
48522;SDS011;34315;50.150;11.070;2023-03-23T04:13:30;5.32;;;1.98;;
48522;SDS011;34315;50.150;11.070;2023-03-23T04:18:34;4.18;;;1.90;;
48522;SDS011;34315;50.150;11.070;2023-03-23T04:23:36;4.13;;;1.80;;
48522;SDS011;34315;50.150;11.070;2023-03-23T04:28:38;4.28;;;2.00;;
48522;SDS011;34315;50.150;11.070;2023-03-23T04:33:58;4.15;;;2.03;;
48522;SDS011;34315;50.150;11.070;2023-03-23T04:39:04;2.78;;;1.75;;
48522;SDS011;34315;50.150;11.070;2023-03-23T04:44:10;4.13;;;2.13;;
48522;SDS011;34315;50.150;11.070;2023-03-23T04:49:18;3.90;;;1.60;;
48522;SDS011;34315;50.150;11.070;2023-03-23T04:54:23;4.55;;;2.10;;
48522;SDS011;34315;50.150;11.070;2023-03-23T04:59:28;4.55;;;2.00;;
48522;SDS011;34315;50.150;11.070;2023-03-23T05:04:43;3.10;;;1.75;;
48522;SDS011;34315;50.150;11.070;2023-03-23T05:09:49;3.35;;;1.65;;
48522;SDS011;34315;50.150;11.070;2023-03-23T05:14:53;3.17;;;1.83;;
48522;SDS011;34315;50.150;11.070;2023-03-23T05:19:59;5.97;;;2.28;;
48522;SDS011;34315;50.150;11.070;2023-03-23T05:25:21;3.22;;;1.88;;
48522;SDS011;34315;50.150;11.070;2023-03-23T05:30:40;3.10;;;1.83;;
48522;SDS011;34315;50.150;11.070;2023-03-23T05:35:44;5.20;;;1.65;;
48522;SDS011;34315;50.150;11.070;2023-03-23T05:40:48;4.35;;;1.80;;
48522;SDS011;34315;50.150;11.070;2023-03-23T05:45:52;4.22;;;2.15;;
48522;SDS011;34315;50.150;11.070;2023-03-23T05:50:53;4.45;;;1.67;;
48522;SDS011;34315;50.150;11.070;2023-03-23T05:55:58;3.70;;;1.77;;
48522;SDS011;34315;50.150;11.070;2023-03-23T06:01:19;5.13;;;2.03;;
48522;SDS011;34315;50.150;11.070;2023-03-23T06:06:21;6.18;;;1.90;;
48522;SDS011;34315;50.150;11.070;2023-03-23T06:11:29;3.05;;;1.98;;
48522;SDS011;34315;50.150;11.070;2023-03-23T06:16:50;6.65;;;1.90;;
48522;SDS011;34315;50.150;11.070;2023-03-23T06:21:53;3.83;;;1.98;;
48522;SDS011;34315;50.150;11.070;2023-03-23T06:27:02;3.40;;;1.70;;
48522;SDS011;34315;50.150;11.070;2023-03-23T06:32:04;3.28;;;1.90;;
48522;SDS011;34315;50.150;11.070;2023-03-23T06:37:06;4.70;;;1.90;;
48522;SDS011;34315;50.150;11.070;2023-03-23T06:42:26;4.32;;;1.80;;
48522;SDS011;34315;50.150;11.070;2023-03-23T06:47:53;3.60;;;1.88;;
48522;SDS011;34315;50.150;11.070;2023-03-23T06:52:55;4.70;;;2.30;;
48522;SDS011;34315;50.150;11.070;2023-03-23T06:57:56;4.85;;;2.17;;
48522;SDS011;34315;50.150;11.070;2023-03-23T07:02:59;3.72;;;1.83;;
48522;SDS011;34315;50.150;11.070;2023-03-23T07:08:02;4.90;;;2.03;;
48522;SDS011;34315;50.150;11.070;2023-03-23T07:13:08;3.72;;;1.90;;
48522;SDS011;34315;50.150;11.070;2023-03-23T07:18:20;4.22;;;1.90;;
48522;SDS011;34315;50.150;11.070;2023-03-23T07:23:23;4.43;;;1.80;;
48522;SDS011;34315;50.150;11.070;2023-03-23T07:28:31;8.35;;;2.70;;
48522;SDS011;34315;50.150;11.070;2023-03-23T07:33:38;5.22;;;2.20;;
48522;SDS011;34315;50.150;11.070;2023-03-23T07:38:40;5.05;;;2.40;;
48522;SDS011;34315;50.150;11.070;2023-03-23T07:43:42;4.72;;;2.28;;
48522;SDS011;34315;50.150;11.070;2023-03-23T07:49:19;3.60;;;1.65;;
48522;SDS011;34315;50.150;11.070;2023-03-23T07:54:29;3.83;;;2.22;;
48522;SDS011;34315;50.150;11.070;2023-03-23T07:59:39;7.85;;;2.80;;
48522;SDS011;34315;50.150;11.070;2023-03-23T08:04:40;7.88;;;2.65;;
48522;SDS011;34315;50.150;11.070;2023-03-23T08:10:01;7.53;;;2.85;;
48522;SDS011;34315;50.150;11.070;2023-03-23T08:15:13;9.68;;;3.00;;
48522;SDS011;34315;50.150;11.070;2023-03-23T08:20:32;6.43;;;3.38;;
48522;SDS011;34315;50.150;11.070;2023-03-23T08:31:10;5.17;;;2.30;;
48522;SDS011;34315;50.150;11.070;2023-03-23T08:36:36;4.32;;;2.10;;
48522;SDS011;34315;50.150;11.070;2023-03-23T08:41:53;5.88;;;2.58;;
48522;SDS011;34315;50.150;11.070;2023-03-23T08:47:13;4.35;;;2.20;;
48522;SDS011;34315;50.150;11.070;2023-03-23T08:52:49;6.20;;;2.50;;
48522;SDS011;34315;50.150;11.070;2023-03-23T08:58:06;6.40;;;2.65;;
48522;SDS011;34315;50.150;11.070;2023-03-23T09:03:23;5.82;;;2.92;;
48522;SDS011;34315;50.150;11.070;2023-03-23T09:08:36;10.82;;;2.38;;
48522;SDS011;34315;50.150;11.070;2023-03-23T09:13:38;4.68;;;2.40;;
48522;SDS011;34315;50.150;11.070;2023-03-23T09:18:39;8.10;;;2.50;;
48522;SDS011;34315;50.150;11.070;2023-03-23T09:23:40;4.78;;;2.45;;
48522;SDS011;34315;50.150;11.070;2023-03-23T09:28:44;4.05;;;2.00;;
48522;SDS011;34315;50.150;11.070;2023-03-23T09:33:46;5.25;;;2.35;;
48522;SDS011;34315;50.150;11.070;2023-03-23T09:38:48;5.10;;;2.40;;
48522;SDS011;34315;50.150;11.070;2023-03-23T09:49:10;5.00;;;2.20;;
48522;SDS011;34315;50.150;11.070;2023-03-23T09:59:39;6.55;;;2.60;;
48522;SDS011;34315;50.150;11.070;2023-03-23T10:04:52;7.88;;;2.45;;
48522;SDS011;34315;50.150;11.070;2023-03-23T10:09:57;5.28;;;2.10;;
48522;SDS011;34315;50.150;11.070;2023-03-23T10:25:23;2.75;;;1.60;;
48522;SDS011;34315;50.150;11.070;2023-03-23T10:30:32;2.97;;;1.70;;
48522;SDS011;34315;50.150;11.070;2023-03-23T10:35:38;3.40;;;1.58;;
48522;SDS011;34315;50.150;11.070;2023-03-23T10:40:45;4.63;;;1.80;;
48522;SDS011;34315;50.150;11.070;2023-03-23T10:45:52;3.90;;;1.48;;
48522;SDS011;34315;50.150;11.070;2023-03-23T10:50:58;2.88;;;1.40;;
48522;SDS011;34315;50.150;11.070;2023-03-23T10:56:02;2.20;;;1.20;;
48522;SDS011;34315;50.150;11.070;2023-03-23T11:01:04;2.17;;;1.15;;
48522;SDS011;34315;50.150;11.070;2023-03-23T11:06:06;1.95;;;1.20;;
48522;SDS011;34315;50.150;11.070;2023-03-23T11:11:20;3.03;;;1.50;;
48522;SDS011;34315;50.150;11.070;2023-03-23T11:16:26;2.22;;;1.30;;
48522;SDS011;34315;50.150;11.070;2023-03-23T11:21:32;2.95;;;1.52;;
48522;SDS011;34315;50.150;11.070;2023-03-23T11:26:33;3.10;;;1.40;;
48522;SDS011;34315;50.150;11.070;2023-03-23T11:31:36;2.42;;;1.35;;
48522;SDS011;34315;50.150;11.070;2023-03-23T11:41:42;1.95;;;1.23;;
48522;SDS011;34315;50.150;11.070;2023-03-23T11:47:00;1.95;;;1.35;;
48522;SDS011;34315;50.150;11.070;2023-03-23T11:52:13;1.98;;;1.17;;
48522;SDS011;34315;50.150;11.070;2023-03-23T11:57:26;2.95;;;1.40;;
48522;SDS011;34315;50.150;11.070;2023-03-23T12:07:39;8.60;;;1.42;;
48522;SDS011;34315;50.150;11.070;2023-03-23T12:24:02;4.72;;;1.30;;
48522;SDS011;34315;50.150;11.070;2023-03-23T12:56:21;1.65;;;1.02;;
48522;SDS011;34315;50.150;11.070;2023-03-23T13:01:26;2.60;;;1.30;;
48522;SDS011;34315;50.150;11.070;2023-03-23T13:06:32;3.00;;;1.60;;
48522;SDS011;34315;50.150;11.070;2023-03-23T13:11:45;2.15;;;1.10;;
48522;SDS011;34315;50.150;11.070;2023-03-23T13:16:53;1.73;;;1.10;;
48522;SDS011;34315;50.150;11.070;2023-03-23T13:22:13;3.17;;;1.20;;
48522;SDS011;34315;50.150;11.070;2023-03-23T13:27:30;0.93;;;0.80;;
48522;SDS011;34315;50.150;11.070;2023-03-23T13:32:36;1.58;;;1.00;;
48522;SDS011;34315;50.150;11.070;2023-03-23T13:37:43;2.38;;;1.20;;
48522;SDS011;34315;50.150;11.070;2023-03-23T13:42:50;1.88;;;1.00;;
48522;SDS011;34315;50.150;11.070;2023-03-23T13:48:03;2.03;;;1.20;;
48522;SDS011;34315;50.150;11.070;2023-03-23T13:53:14;2.80;;;1.33;;
48522;SDS011;34315;50.150;11.070;2023-03-23T13:58:22;3.60;;;1.45;;
48522;SDS011;34315;50.150;11.070;2023-03-23T14:03:38;2.33;;;1.30;;
48522;SDS011;34315;50.150;11.070;2023-03-23T14:08:44;5.82;;;1.70;;
48522;SDS011;34315;50.150;11.070;2023-03-23T14:19:41;2.85;;;1.50;;
48522;SDS011;34315;50.150;11.070;2023-03-23T14:24:41;3.67;;;2.13;;
48522;SDS011;34315;50.150;11.070;2023-03-23T14:29:42;3.03;;;1.60;;
48522;SDS011;34315;50.150;11.070;2023-03-23T14:34:46;5.78;;;1.90;;
48522;SDS011;34315;50.150;11.070;2023-03-23T14:39:48;2.95;;;1.55;;
48522;SDS011;34315;50.150;11.070;2023-03-23T14:44:51;2.75;;;1.35;;
48522;SDS011;34315;50.150;11.070;2023-03-23T14:49:53;3.47;;;1.30;;
48522;SDS011;34315;50.150;11.070;2023-03-23T14:55:07;2.97;;;1.40;;
48522;SDS011;34315;50.150;11.070;2023-03-23T15:00:23;1.92;;;1.20;;
48522;SDS011;34315;50.150;11.070;2023-03-23T15:05:33;3.35;;;1.45;;
48522;SDS011;34315;50.150;11.070;2023-03-23T15:10:36;2.85;;;1.60;;
48522;SDS011;34315;50.150;11.070;2023-03-23T15:15:38;2.13;;;1.20;;
48522;SDS011;34315;50.150;11.070;2023-03-23T15:25:50;1.98;;;1.20;;
48522;SDS011;34315;50.150;11.070;2023-03-23T15:30:53;1.45;;;1.17;;
48522;SDS011;34315;50.150;11.070;2023-03-23T15:35:58;1.67;;;1.10;;
48522;SDS011;34315;50.150;11.070;2023-03-23T15:41:00;4.70;;;1.88;;
48522;SDS011;34315;50.150;11.070;2023-03-23T15:51:07;6.40;;;2.25;;
48522;SDS011;34315;50.150;11.070;2023-03-23T15:56:09;4.18;;;2.03;;
48522;SDS011;34315;50.150;11.070;2023-03-23T16:01:15;3.17;;;1.60;;
48522;SDS011;34315;50.150;11.070;2023-03-23T16:06:19;7.10;;;2.10;;
48522;SDS011;34315;50.150;11.070;2023-03-23T16:11:24;3.08;;;1.30;;
48522;SDS011;34315;50.150;11.070;2023-03-23T16:16:34;4.40;;;2.10;;
48522;SDS011;34315;50.150;11.070;2023-03-23T16:21:37;7.78;;;2.70;;
48522;SDS011;34315;50.150;11.070;2023-03-23T16:26:38;3.80;;;1.60;;
48522;SDS011;34315;50.150;11.070;2023-03-23T16:31:40;3.25;;;1.30;;
48522;SDS011;34315;50.150;11.070;2023-03-23T16:36:41;2.95;;;1.63;;
48522;SDS011;34315;50.150;11.070;2023-03-23T16:41:43;3.88;;;1.42;;
48522;SDS011;34315;50.150;11.070;2023-03-23T16:46:44;2.88;;;1.60;;
48522;SDS011;34315;50.150;11.070;2023-03-23T16:51:45;3.13;;;1.80;;
48522;SDS011;34315;50.150;11.070;2023-03-23T16:56:47;3.95;;;1.92;;
48522;SDS011;34315;50.150;11.070;2023-03-23T17:01:48;2.50;;;1.40;;
48522;SDS011;34315;50.150;11.070;2023-03-23T17:06:50;2.30;;;1.23;;
48522;SDS011;34315;50.150;11.070;2023-03-23T17:11:51;2.80;;;1.42;;
48522;SDS011;34315;50.150;11.070;2023-03-23T17:16:53;1.98;;;1.40;;
48522;SDS011;34315;50.150;11.070;2023-03-23T17:21:54;2.80;;;1.00;;
48522;SDS011;34315;50.150;11.070;2023-03-23T17:26:55;2.42;;;1.30;;
48522;SDS011;34315;50.150;11.070;2023-03-23T17:31:56;7.20;;;1.60;;
48522;SDS011;34315;50.150;11.070;2023-03-23T17:36:57;3.33;;;1.67;;
48522;SDS011;34315;50.150;11.070;2023-03-23T17:41:59;3.38;;;1.50;;
48522;SDS011;34315;50.150;11.070;2023-03-23T17:47:00;3.17;;;1.85;;
48522;SDS011;34315;50.150;11.070;2023-03-23T17:52:01;3.38;;;1.70;;
48522;SDS011;34315;50.150;11.070;2023-03-23T17:57:03;3.30;;;1.75;;
48522;SDS011;34315;50.150;11.070;2023-03-23T18:02:04;4.22;;;2.08;;
48522;SDS011;34315;50.150;11.070;2023-03-23T18:07:05;3.10;;;1.50;;
48522;SDS011;34315;50.150;11.070;2023-03-23T18:12:06;3.58;;;1.95;;
48522;SDS011;34315;50.150;11.070;2023-03-23T18:17:08;4.40;;;2.40;;
48522;SDS011;34315;50.150;11.070;2023-03-23T18:22:09;5.15;;;2.08;;
48522;SDS011;34315;50.150;11.070;2023-03-23T18:27:10;3.53;;;1.95;;
48522;SDS011;34315;50.150;11.070;2023-03-23T18:32:11;4.45;;;1.85;;
48522;SDS011;34315;50.150;11.070;2023-03-23T18:37:12;3.22;;;1.80;;
48522;SDS011;34315;50.150;11.070;2023-03-23T18:42:13;6.53;;;2.80;;
48522;SDS011;34315;50.150;11.070;2023-03-23T18:47:15;7.32;;;2.78;;
48522;SDS011;34315;50.150;11.070;2023-03-23T18:52:16;4.80;;;2.20;;
48522;SDS011;34315;50.150;11.070;2023-03-23T18:57:18;3.90;;;2.00;;
48522;SDS011;34315;50.150;11.070;2023-03-23T19:02:22;4.35;;;2.42;;
48522;SDS011;34315;50.150;11.070;2023-03-23T19:07:23;4.97;;;2.20;;
48522;SDS011;34315;50.150;11.070;2023-03-23T19:12:24;3.85;;;2.03;;
48522;SDS011;34315;50.150;11.070;2023-03-23T19:17:25;4.97;;;2.55;;
48522;SDS011;34315;50.150;11.070;2023-03-23T19:22:26;4.63;;;2.55;;
48522;SDS011;34315;50.150;11.070;2023-03-23T19:27:28;5.40;;;2.83;;
48522;SDS011;34315;50.150;11.070;2023-03-23T19:32:29;4.85;;;2.90;;
48522;SDS011;34315;50.150;11.070;2023-03-23T19:37:30;4.57;;;2.10;;
48522;SDS011;34315;50.150;11.070;2023-03-23T19:42:32;5.03;;;2.20;;
48522;SDS011;34315;50.150;11.070;2023-03-23T19:47:33;6.13;;;2.22;;
48522;SDS011;34315;50.150;11.070;2023-03-23T19:52:35;4.55;;;2.45;;
48522;SDS011;34315;50.150;11.070;2023-03-23T19:57:36;5.55;;;3.72;;
48522;SDS011;34315;50.150;11.070;2023-03-23T20:02:37;6.90;;;2.72;;
48522;SDS011;34315;50.150;11.070;2023-03-23T20:07:38;8.93;;;3.05;;
48522;SDS011;34315;50.150;11.070;2023-03-23T20:12:40;4.57;;;2.92;;
48522;SDS011;34315;50.150;11.070;2023-03-23T20:17:41;6.60;;;3.05;;
48522;SDS011;34315;50.150;11.070;2023-03-23T20:22:43;5.45;;;3.40;;
48522;SDS011;34315;50.150;11.070;2023-03-23T20:27:44;5.95;;;3.20;;
48522;SDS011;34315;50.150;11.070;2023-03-23T20:32:46;5.75;;;3.25;;
48522;SDS011;34315;50.150;11.070;2023-03-23T20:37:47;4.97;;;3.08;;
48522;SDS011;34315;50.150;11.070;2023-03-23T20:42:50;6.53;;;3.70;;
48522;SDS011;34315;50.150;11.070;2023-03-23T20:47:53;6.05;;;3.17;;
48522;SDS011;34315;50.150;11.070;2023-03-23T20:52:55;7.43;;;3.92;;
48522;SDS011;34315;50.150;11.070;2023-03-23T20:57:57;5.43;;;3.22;;
48522;SDS011;34315;50.150;11.070;2023-03-23T21:02:58;8.23;;;3.28;;
48522;SDS011;34315;50.150;11.070;2023-03-23T21:07:59;6.82;;;3.35;;
48522;SDS011;34315;50.150;11.070;2023-03-23T21:13:01;6.25;;;3.63;;
48522;SDS011;34315;50.150;11.070;2023-03-23T21:18:02;7.47;;;3.90;;
48522;SDS011;34315;50.150;11.070;2023-03-23T21:23:04;10.68;;;4.13;;
48522;SDS011;34315;50.150;11.070;2023-03-23T21:28:08;8.60;;;4.90;;
48522;SDS011;34315;50.150;11.070;2023-03-23T21:33:10;7.93;;;4.55;;
48522;SDS011;34315;50.150;11.070;2023-03-23T21:38:12;9.00;;;5.25;;
48522;SDS011;34315;50.150;11.070;2023-03-23T21:43:13;10.95;;;5.07;;
48522;SDS011;34315;50.150;11.070;2023-03-23T21:48:16;10.05;;;5.13;;
48522;SDS011;34315;50.150;11.070;2023-03-23T21:53:17;11.27;;;5.45;;
48522;SDS011;34315;50.150;11.070;2023-03-23T21:58:20;12.75;;;6.70;;
48522;SDS011;34315;50.150;11.070;2023-03-23T22:03:23;15.40;;;7.45;;
48522;SDS011;34315;50.150;11.070;2023-03-23T22:08:26;10.65;;;5.80;;
48522;SDS011;34315;50.150;11.070;2023-03-23T22:13:29;11.75;;;6.43;;
48522;SDS011;34315;50.150;11.070;2023-03-23T22:18:31;18.00;;;8.40;;
48522;SDS011;34315;50.150;11.070;2023-03-23T22:23:33;12.70;;;6.40;;
48522;SDS011;34315;50.150;11.070;2023-03-23T22:28:35;10.80;;;5.50;;
48522;SDS011;34315;50.150;11.070;2023-03-23T22:33:36;13.30;;;5.63;;
48522;SDS011;34315;50.150;11.070;2023-03-23T22:38:39;9.27;;;5.00;;
48522;SDS011;34315;50.150;11.070;2023-03-23T22:43:42;9.40;;;4.93;;
48522;SDS011;34315;50.150;11.070;2023-03-23T22:48:43;8.75;;;5.50;;
48522;SDS011;34315;50.150;11.070;2023-03-23T22:53:45;7.57;;;4.65;;
48522;SDS011;34315;50.150;11.070;2023-03-23T22:58:46;9.45;;;5.10;;
48522;SDS011;34315;50.150;11.070;2023-03-23T23:03:47;7.90;;;4.97;;
48522;SDS011;34315;50.150;11.070;2023-03-23T23:08:48;9.48;;;4.97;;
48522;SDS011;34315;50.150;11.070;2023-03-23T23:13:51;10.52;;;4.85;;
48522;SDS011;34315;50.150;11.070;2023-03-23T23:18:53;6.93;;;3.92;;
48522;SDS011;34315;50.150;11.070;2023-03-23T23:23:54;7.75;;;3.70;;
48522;SDS011;34315;50.150;11.070;2023-03-23T23:28:55;8.90;;;3.70;;
48522;SDS011;34315;50.150;11.070;2023-03-23T23:33:57;5.78;;;3.38;;
48522;SDS011;34315;50.150;11.070;2023-03-23T23:39:00;6.55;;;3.65;;
48522;SDS011;34315;50.150;11.070;2023-03-23T23:44:03;5.65;;;3.10;;
48522;SDS011;34315;50.150;11.070;2023-03-23T23:49:05;8.32;;;3.75;;
48522;SDS011;34315;50.150;11.070;2023-03-23T23:54:06;8.07;;;3.70;;
48522;SDS011;34315;50.150;11.070;2023-03-23T23:59:07;9.35;;;4.18;;
